Valtellina — ICKF — position and weather

sailwx.info

Track history (hours):
 
Tides and Currents Weather Stations Pressure Air Temp Water Temp Dewpoint Dewpoint Depression Visibility Wind Speed Wind Dir Waves Ship Positions

Valtellina

Last reported at 2015-May-06 14:32 UTC. Time now 2015-May-06 15:31 UTC.
Position N 39°04' E 009°04'.

Length 184 m; draft 7.3 m.

Type: Tanker. MMSI: 247243900.

Date/timePositionNaut miles runAvg speedWind from/ knotsBaromVisibWave heightAir tempDewpointWater temp
2015-May-06 14:32N 39°04' E 009°04'0 0.2
2015-May-06 13:32N 39°04' E 009°04'0 0.1
2015-May-06 12:32N 39°04' E 009°04'0 0.0
2015-May-06 11:32N 39°04' E 009°04'0 0.0
2015-May-06 10:32N 39°04' E 009°04'0 0.0
2015-May-06 09:32N 39°04' E 009°04'0 0.0
2015-May-06 08:32N 39°04' E 009°04'0 0.0
2015-May-06 07:32N 39°04' E 009°04'0 0.0
2015-May-06 06:32N 39°04' E 009°04'0 0.1
2015-May-06 05:32N 39°04' E 009°04'0 0.0
2015-May-06 04:32N 39°04' E 009°04'0 0.0
2015-May-06 03:32N 39°04' E 009°04'0 0.0
2015-May-06 02:32N 39°04' E 009°04'0 0.0
2015-May-06 01:32N 39°04' E 009°04'0 0.0
2015-May-06 00:32N 39°04' E 009°04'0 0.1
2015-May-05 23:32N 39°04' E 009°04'0 0.1
2015-May-05 22:32N 39°04' E 009°04'0 0.0
2015-May-05 21:32N 39°04' E 009°04'0 0.1
2015-May-05 20:32N 39°04' E 009°04'0 0.0
2015-May-05 19:32N 39°04' E 009°04'0 0.1
2015-May-05 18:32N 39°04' E 009°04'0 0.0
2015-May-05 17:32N 39°04' E 009°04'0 0.1
2015-May-05 16:32N 39°04' E 009°04'0 0.0
2015-May-05 15:32N 39°04' E 009°04'0 0.1
2015-May-05 14:32N 39°04' E 009°04'0 0.1
2015-May-05 13:32N 39°04' E 009°04'0 0.1
2015-May-05 12:32N 39°04' E 009°04'0 0.1
2015-May-05 11:32N 39°04' E 009°04'0 0.0
2015-May-05 10:32N 39°04' E 009°04'0 0.2
2015-May-05 09:32N 39°04' E 009°04'9 9.2
2015-May-05 08:33N 38°59' E 009°14'1313.2
2015-May-05 07:33N 38°52' E 009°28'1313.2
2015-May-05 06:33N 38°44' E 009°42'1312.9
2015-May-05 05:33N 38°40' E 009°57'1313.1
2015-May-05 04:33N 38°33' E 010°12'1313.0
2015-May-05 03:33N 38°27' E 010°26'1313.1
2015-May-05 02:32N 38°20' E 010°41'1313.0
2015-May-05 01:32N 38°13' E 010°55'1313.3
2015-May-05 00:33N 38°06' E 011°09'1313.0
2015-May-04 23:33N 37°60' E 011°23'1313.0
2015-May-04 22:33N 37°53' E 011°38'1313.0
2015-May-04 21:33N 37°47' E 011°52'1312.8
2015-May-04 20:33N 37°40' E 012°06'1313.0
2015-May-04 19:33N 37°34' E 012°20'1313.5
2015-May-04 18:33N 37°27' E 012°35'1513.4
2015-May-04 17:24N 37°19' E 012°51'2512.9
2015-May-04 15:29N 37°06' E 013°18'1212.5
2015-May-04 14:33N 37°02' E 013°31'1212.4
2015-May-04 13:33N 36°57' E 013°46'1212.3
2015-May-04 12:33N 36°51' E 013°59'1313.2
2015-May-04 11:33N 36°45' E 014°14'1312.8
2015-May-04 10:33N 36°39' E 014°28'1312.7
2015-May-04 09:33N 36°37' E 014°44'1413.1
2015-May-04 08:32N 36°35' E 015°00'1312.9
2015-May-04 07:33N 36°30' E 015°15'23313.0
2015-May-03 13:33N 34°57' E 019°39'1312.9
2015-May-03 12:33N 34°52' E 019°53'1312.9
2015-May-03 11:33N 34°47' E 020°07'1313.0
2015-May-03 10:33N 34°42' E 020°22'1313.0
2015-May-03 09:33N 34°36' E 020°36'1512.4
2015-May-03 08:23N 34°31' E 020°53'1412.5
2015-May-03 07:15N 34°25' E 021°08'1013.1
2015-May-03 06:31N 34°21' E 021°19'1212.9
2015-May-03 05:33N 34°16' E 021°33'1313.0
2015-May-03 04:33N 34°11' E 021°47'1313.0
2015-May-03 03:32N 34°06' E 022°02'1312.8
2015-May-03 02:32N 34°00' E 022°16'1212.6
2015-May-03 01:33N 33°56' E 022°30'1312.7
2015-May-03 00:33N 33°50' E 022°44'1312.5
2015-May-02 23:33N 33°45' E 022°58'1212.4
2015-May-02 22:33N 33°40' E 023°11'1312.6
2015-May-02 21:33N 33°35' E 023°25'5112.6
2015-May-02 17:29N 33°15' E 024°21'2812.3
2015-May-02 15:12N 33°04' E 024°52'2112.5
2015-May-02 13:33N 32°55' E 025°14'1312.4
2015-May-02 12:30N 32°50' E 025°29'  
Track history (hours):
 
Tides and Currents Weather Stations Pressure Air Temp Water Temp Dewpoint Dewpoint Depression Visibility Wind Speed Wind Dir Waves Ship Positions

Valtellina

Last reported at 2015-May-06 14:32 UTC. Time now 2015-May-06 15:31 UTC.
Position N 39°04' E 009°04'.

Length 184 m; draft 7.3 m.

Type: Tanker. MMSI: 247243900.

Date/timePositionNaut miles runAvg speedWind from/ knotsBaromVisibWave heightAir tempDewpointWater temp
2015-May-06 14:32N 39°04' E 009°04'0 0.2
2015-May-06 13:32N 39°04' E 009°04'0 0.1
2015-May-06 12:32N 39°04' E 009°04'0 0.0
2015-May-06 11:32N 39°04' E 009°04'0 0.0
2015-May-06 10:32N 39°04' E 009°04'0 0.0
2015-May-06 09:32N 39°04' E 009°04'0 0.0
2015-May-06 08:32N 39°04' E 009°04'0 0.0
2015-May-06 07:32N 39°04' E 009°04'0 0.0
2015-May-06 06:32N 39°04' E 009°04'0 0.1
2015-May-06 05:32N 39°04' E 009°04'0 0.0
2015-May-06 04:32N 39°04' E 009°04'0 0.0
2015-May-06 03:32N 39°04' E 009°04'0 0.0
2015-May-06 02:32N 39°04' E 009°04'0 0.0
2015-May-06 01:32N 39°04' E 009°04'0 0.0
2015-May-06 00:32N 39°04' E 009°04'0 0.1
2015-May-05 23:32N 39°04' E 009°04'0 0.1
2015-May-05 22:32N 39°04' E 009°04'0 0.0
2015-May-05 21:32N 39°04' E 009°04'0 0.1
2015-May-05 20:32N 39°04' E 009°04'0 0.0
2015-May-05 19:32N 39°04' E 009°04'0 0.1
2015-May-05 18:32N 39°04' E 009°04'0 0.0
2015-May-05 17:32N 39°04' E 009°04'0 0.1
2015-May-05 16:32N 39°04' E 009°04'0 0.0
2015-May-05 15:32N 39°04' E 009°04'0 0.1
2015-May-05 14:32N 39°04' E 009°04'0 0.1
2015-May-05 13:32N 39°04' E 009°04'0 0.1
2015-May-05 12:32N 39°04' E 009°04'0 0.1
2015-May-05 11:32N 39°04' E 009°04'0 0.0
2015-May-05 10:32N 39°04' E 009°04'0 0.2
2015-May-05 09:32N 39°04' E 009°04'9 9.2
2015-May-05 08:33N 38°59' E 009°14'1313.2
2015-May-05 07:33N 38°52' E 009°28'1313.2
2015-May-05 06:33N 38°44' E 009°42'1312.9
2015-May-05 05:33N 38°40' E 009°57'1313.1
2015-May-05 04:33N 38°33' E 010°12'1313.0
2015-May-05 03:33N 38°27' E 010°26'1313.1
2015-May-05 02:32N 38°20' E 010°41'1313.0
2015-May-05 01:32N 38°13' E 010°55'1313.3
2015-May-05 00:33N 38°06' E 011°09'1313.0
2015-May-04 23:33N 37°60' E 011°23'1313.0
2015-May-04 22:33N 37°53' E 011°38'1313.0
2015-May-04 21:33N 37°47' E 011°52'1312.8
2015-May-04 20:33N 37°40' E 012°06'1313.0
2015-May-04 19:33N 37°34' E 012°20'1313.5
2015-May-04 18:33N 37°27' E 012°35'1513.4
2015-May-04 17:24N 37°19' E 012°51'2512.9
2015-May-04 15:29N 37°06' E 013°18'1212.5
2015-May-04 14:33N 37°02' E 013°31'1212.4
2015-May-04 13:33N 36°57' E 013°46'1212.3
2015-May-04 12:33N 36°51' E 013°59'1313.2
2015-May-04 11:33N 36°45' E 014°14'1312.8
2015-May-04 10:33N 36°39' E 014°28'1312.7
2015-May-04 09:33N 36°37' E 014°44'1413.1
2015-May-04 08:32N 36°35' E 015°00'1312.9
2015-May-04 07:33N 36°30' E 015°15'23313.0
2015-May-03 13:33N 34°57' E 019°39'1312.9
2015-May-03 12:33N 34°52' E 019°53'1312.9
2015-May-03 11:33N 34°47' E 020°07'1313.0
2015-May-03 10:33N 34°42' E 020°22'1313.0
2015-May-03 09:33N 34°36' E 020°36'1512.4
2015-May-03 08:23N 34°31' E 020°53'1412.5
2015-May-03 07:15N 34°25' E 021°08'1013.1
2015-May-03 06:31N 34°21' E 021°19'1212.9
2015-May-03 05:33N 34°16' E 021°33'1313.0
2015-May-03 04:33N 34°11' E 021°47'1313.0
2015-May-03 03:32N 34°06' E 022°02'1312.8
2015-May-03 02:32N 34°00' E 022°16'1212.6
2015-May-03 01:33N 33°56' E 022°30'1312.7
2015-May-03 00:33N 33°50' E 022°44'1312.5
2015-May-02 23:33N 33°45' E 022°58'1212.4
2015-May-02 22:33N 33°40' E 023°11'1312.6
2015-May-02 21:33N 33°35' E 023°25'5112.6
2015-May-02 17:29N 33°15' E 024°21'2812.3
2015-May-02 15:12N 33°04' E 024°52'2112.5
2015-May-02 13:33N 32°55' E 025°14'1312.4
2015-May-02 12:30N 32°50' E 025°29'  

Dump ship's entire track history